createdAt,value
2023-02-05T00:01:28.511Z,94174.78
2023-02-05T00:03:55.120Z,94186.34
2023-02-05T00:06:21.745Z,94180.22
2023-02-05T00:08:48.391Z,94179.16
2023-02-05T00:11:15.078Z,94187.59
2023-02-05T00:13:42.878Z,94193.94
2023-02-05T00:16:18.192Z,94182.94
2023-02-05T00:18:45.775Z,94180.84
2023-02-05T00:21:13.973Z,94191.00
2023-02-05T00:23:41.180Z,94179.81
2023-02-05T00:26:08.833Z,94179.81
2023-02-05T00:28:35.948Z,94180.06
2023-02-05T00:31:12.139Z,94190.56
2023-02-05T00:33:39.407Z,94184.13
2023-02-05T00:36:07.409Z,94193.66
2023-02-05T00:38:34.079Z,94194.88
2023-02-05T00:41:00.753Z,94205.06
2023-02-05T00:43:27.432Z,94202.41
2023-02-05T00:45:54.587Z,94210.28
2023-02-05T00:48:21.693Z,94209.47
2023-02-05T00:50:51.133Z,94211.97
2023-02-05T00:53:18.414Z,94212.09
2023-02-05T00:55:45.072Z,94215.44
2023-02-05T00:58:12.507Z,94220.84
2023-02-05T01:00:40.028Z,94208.50
2023-02-05T01:03:06.609Z,94211.47
2023-02-05T01:05:37.354Z,94205.88
2023-02-05T01:08:05.450Z,94212.81
2023-02-05T01:10:33.337Z,94211.25
2023-02-05T01:12:59.976Z,94214.47
2023-02-05T01:15:26.733Z,94215.16
2023-02-05T01:17:53.346Z,94212.34
2023-02-05T01:20:20.532Z,94223.84
2023-02-05T01:22:47.375Z,94214.84
2023-02-05T01:25:13.924Z,94211.56
2023-02-05T01:27:40.610Z,94210.28
2023-02-05T01:30:07.866Z,94214.09
2023-02-05T01:32:35.635Z,94215.34
2023-02-05T01:35:02.238Z,94220.97
2023-02-05T01:37:28.875Z,94217.41
2023-02-05T01:39:55.473Z,94223.31
2023-02-05T01:42:23.934Z,94228.41
2023-02-05T01:45:35.792Z,94229.75
2023-02-05T01:48:04.668Z,94224.56
2023-02-05T01:50:44.658Z,94226.34
2023-02-05T01:53:29.869Z,94223.06
2023-02-05T01:56:09.946Z,94225.56
2023-02-05T01:58:42.616Z,94233.91
2023-02-05T02:01:09.370Z,94236.53
2023-02-05T02:03:36.070Z,94232.16
2023-02-05T02:06:04.866Z,94239.88
2023-02-05T02:08:32.945Z,94247.50
2023-02-05T02:11:02.730Z,94252.28
2023-02-05T02:13:33.566Z,94256.09
2023-02-05T02:16:00.641Z,94251.75
2023-02-05T02:18:28.783Z,94250.19
2023-02-05T02:21:13.265Z,94251.25
2023-02-05T02:24:02.831Z,94250.66
2023-02-05T02:26:51.073Z,94253.41
2023-02-05T02:29:25.145Z,94253.63
2023-02-05T02:31:59.834Z,94247.91
2023-02-05T02:34:48.041Z,94250.22
2023-02-05T02:37:43.378Z,94255.19
2023-02-05T02:40:25.582Z,94255.22
2023-02-05T02:43:03.451Z,94266.19
2023-02-05T02:45:35.052Z,94259.66
2023-02-05T02:48:04.454Z,94266.47
2023-02-05T02:50:36.207Z,94266.22
2023-02-05T02:53:09.020Z,94258.34
2023-02-05T02:55:38.675Z,94266.66
2023-02-05T02:58:13.144Z,94269.31
2023-02-05T03:00:44.029Z,94270.38
2023-02-05T03:03:13.643Z,94268.84
2023-02-05T03:05:43.660Z,94272.75
2023-02-05T03:08:21.745Z,94270.13
2023-02-05T03:10:55.687Z,94276.38
2023-02-05T03:13:22.487Z,94275.34
2023-02-05T03:15:49.333Z,94273.28
2023-02-05T03:18:18.533Z,94282.69
2023-02-05T03:20:57.786Z,94272.22
2023-02-05T03:23:27.329Z,94279.53
2023-02-05T03:25:54.118Z,94285.56
2023-02-05T03:28:21.415Z,94284.78
2023-02-05T03:31:25.621Z,94290.81
2023-02-05T03:34:16.782Z,94284.25
2023-02-05T03:36:48.476Z,94293.16
2023-02-05T03:39:39.747Z,94295.53
2023-02-05T03:42:18.364Z,94295.25
2023-02-05T03:44:44.968Z,94298.66
2023-02-05T03:47:20.471Z,94287.88
2023-02-05T03:50:41.411Z,94292.84
2023-02-05T03:53:35.597Z,94289.44
2023-02-05T03:56:07.571Z,94291.59
2023-02-05T03:58:48.173Z,94284.53
2023-02-05T04:01:15.438Z,94299.69
2023-02-05T04:03:42.421Z,94300.47
2023-02-05T04:06:09.442Z,94309.91
2023-02-05T04:08:36.140Z,94310.94
2023-02-05T04:11:03.229Z,94317.50
2023-02-05T04:13:29.865Z,94318.19
2023-02-05T04:15:56.454Z,94317.13
2023-02-05T04:18:23.134Z,94323.00
2023-02-05T04:20:49.800Z,94314.63
2023-02-05T04:23:16.407Z,94329.56
2023-02-05T04:25:43.146Z,94319.84
2023-02-05T04:28:10.614Z,94311.50
2023-02-05T04:30:37.744Z,94321.94
2023-02-05T04:33:04.356Z,94318.53
2023-02-05T04:35:30.953Z,94329.03
2023-02-05T04:37:57.544Z,94321.94
2023-02-05T04:40:24.160Z,94335.56
2023-02-05T04:42:50.763Z,94323.53
2023-02-05T04:45:17.356Z,94333.75
2023-02-05T04:47:44.068Z,94327.69
2023-02-05T04:50:10.773Z,94329.81
2023-02-05T04:52:37.447Z,94329.28
2023-02-05T04:55:04.280Z,94331.09
2023-02-05T04:57:37.533Z,94334.22
2023-02-05T05:00:05.096Z,94346.53
2023-02-05T05:02:31.969Z,94347.84
2023-02-05T05:04:58.580Z,94345.53
2023-02-05T05:07:25.185Z,94348.91
2023-02-05T05:09:52.538Z,94358.09
2023-02-05T05:12:19.246Z,94343.94
2023-02-05T05:14:45.857Z,94350.75
2023-02-05T05:17:13.360Z,94358.09
2023-02-05T05:19:39.978Z,94358.06
2023-02-05T05:22:07.091Z,94364.88
2023-02-05T05:24:33.771Z,94361.72
2023-02-05T05:27:00.462Z,94366.34
2023-02-05T05:29:27.195Z,94376.13
2023-02-05T05:31:54.379Z,94373.66
2023-02-05T05:34:21.320Z,94372.72
2023-02-05T05:36:48.203Z,94378.16
2023-02-05T05:39:34.339Z,94382.16
2023-02-05T05:42:19.310Z,94384.00
2023-02-05T05:44:50.154Z,94384.00
2023-02-05T05:47:17.084Z,94387.41
2023-02-05T05:49:43.766Z,94394.72
2023-02-05T05:52:10.659Z,94395.94
2023-02-05T05:54:37.350Z,94394.47
2023-02-05T05:57:04.554Z,94393.69
2023-02-05T05:59:31.440Z,94407.03
2023-02-05T06:01:58.080Z,94402.56
2023-02-05T06:04:24.769Z,94398.38
2023-02-05T06:06:51.436Z,94409.16
2023-02-05T06:09:18.058Z,94401.47
2023-02-05T06:11:44.671Z,94410.63
2023-02-05T06:14:11.271Z,94418.94
2023-02-05T06:16:37.892Z,94420.34
2023-02-05T06:19:04.975Z,94423.75
2023-02-05T06:21:31.766Z,94431.63
2023-02-05T06:23:58.433Z,94437.38
2023-02-05T06:26:25.071Z,94446.03
2023-02-05T06:28:51.673Z,94444.53
2023-02-05T06:31:18.493Z,94450.72
2023-02-05T06:33:45.110Z,94451.84
2023-02-05T06:36:11.766Z,94452.91
2023-02-05T06:38:38.344Z,94452.38
2023-02-05T06:41:05.118Z,94457.97
2023-02-05T06:43:31.777Z,94454.44
2023-02-05T06:45:58.407Z,94456.03
2023-02-05T06:48:25.066Z,94454.47
2023-02-05T06:50:52.359Z,94471.56
2023-02-05T06:53:19.116Z,94477.69
2023-02-05T06:55:45.793Z,94485.03
2023-02-05T06:58:16.274Z,94482.88
2023-02-05T07:00:44.741Z,94481.03
2023-02-05T07:03:13.637Z,94481.31
2023-02-05T07:05:40.368Z,94486.06
2023-02-05T07:08:07.327Z,94491.47
2023-02-05T07:10:34.010Z,94487.19
2023-02-05T07:13:00.801Z,94490.00
2023-02-05T07:15:27.512Z,94504.59
2023-02-05T07:17:54.121Z,94490.81
2023-02-05T07:20:20.851Z,94499.75
2023-02-05T07:22:47.441Z,94496.72
2023-02-05T07:25:14.095Z,94495.34
2023-02-05T07:27:40.773Z,94498.25
2023-02-05T07:30:08.324Z,94505.09
2023-02-05T07:32:35.027Z,94500.72
2023-02-05T07:35:03.157Z,94502.41
2023-02-05T07:37:29.808Z,94506.59
2023-02-05T07:39:56.407Z,94511.59
2023-02-05T07:42:23.021Z,94509.94
2023-02-05T07:44:49.666Z,94505.28
2023-02-05T07:47:16.307Z,94505.47
2023-02-05T07:49:42.978Z,94516.19
2023-02-05T07:52:09.579Z,94521.91
2023-02-05T07:54:36.334Z,94531.97
2023-02-05T07:57:04.865Z,94529.81
2023-02-05T07:59:32.595Z,94529.88
2023-02-05T08:01:59.242Z,94533.22
2023-02-05T08:04:25.856Z,94530.25
2023-02-05T08:06:52.598Z,94542.38
2023-02-05T08:09:19.258Z,94543.47
2023-02-05T08:11:45.898Z,94545.38
2023-02-05T08:14:12.545Z,94543.09
2023-02-05T08:16:39.299Z,94542.25
2023-02-05T08:19:07.100Z,94539.88
2023-02-05T08:21:33.712Z,94547.53
2023-02-05T08:24:01.987Z,94542.28
2023-02-05T08:26:28.601Z,94538.88
2023-02-05T08:28:55.320Z,94542.97
2023-02-05T08:31:21.990Z,94547.19
2023-02-05T08:33:50.780Z,94548.06
2023-02-05T08:36:17.492Z,94548.13
2023-02-05T08:38:44.081Z,94548.47
2023-02-05T08:41:14.800Z,94557.88
2023-02-05T08:43:43.292Z,94545.38
2023-02-05T08:46:12.156Z,94553.38
2023-02-05T08:48:39.000Z,94556.69
2023-02-05T08:51:06.155Z,94560.63
2023-02-05T08:53:33.321Z,94550.56
2023-02-05T08:56:02.208Z,94560.91
2023-02-05T08:58:30.045Z,94551.44
2023-02-05T09:01:02.816Z,94559.56
2023-02-05T09:03:30.964Z,94569.50
2023-02-05T09:05:59.411Z,94582.03
2023-02-05T09:08:27.374Z,94577.84
2023-02-05T09:10:54.225Z,94570.75
2023-02-05T09:13:20.803Z,94568.34
2023-02-05T09:15:48.686Z,94580.19
2023-02-05T09:18:15.674Z,94594.38
2023-02-05T09:20:47.663Z,94591.78
2023-02-05T09:23:16.517Z,94591.59
2023-02-05T09:25:43.674Z,94590.19
2023-02-05T09:28:12.922Z,94594.94
2023-02-05T09:30:42.225Z,94589.84
2023-02-05T09:33:09.598Z,94596.94
2023-02-05T09:35:36.782Z,94597.47
2023-02-05T09:38:03.663Z,94608.34
2023-02-05T09:40:38.469Z,94610.31
2023-02-05T09:43:35.830Z,94607.16
2023-02-05T09:46:22.770Z,94602.78
2023-02-05T09:48:55.847Z,94606.03
2023-02-05T09:51:45.011Z,94614.69
2023-02-05T09:54:35.786Z,94605.34
2023-02-05T09:57:16.508Z,94598.53
2023-02-05T09:59:46.563Z,94595.38
2023-02-05T10:02:26.482Z,94598.66
2023-02-05T10:04:54.934Z,94596.53
2023-02-05T10:07:47.240Z,94599.56
2023-02-05T10:10:18.780Z,94606.81
2023-02-05T10:13:21.060Z,94605.97
2023-02-05T10:16:23.436Z,94608.31
2023-02-05T10:19:10.943Z,94610.56
2023-02-05T10:21:49.395Z,94613.19
2023-02-05T10:24:50.994Z,94618.88
2023-02-05T10:27:38.633Z,94611.78
2023-02-05T10:30:11.222Z,94615.47
2023-02-05T10:33:27.797Z,94615.97
2023-02-05T10:36:02.003Z,94625.03
2023-02-05T10:38:33.640Z,94616.25
2023-02-05T10:41:36.092Z,94618.28
2023-02-05T10:44:11.499Z,94613.84
2023-02-05T10:46:40.156Z,94607.34
2023-02-05T10:49:18.949Z,94617.03
2023-02-05T10:51:46.285Z,94611.78
2023-02-05T10:54:20.845Z,94621.72
2023-02-05T10:56:48.231Z,94607.56
2023-02-05T10:59:23.489Z,94612.28
2023-02-05T11:01:51.461Z,94611.53
2023-02-05T11:04:28.361Z,94610.69
2023-02-05T11:06:54.994Z,94613.31
2023-02-05T11:09:24.526Z,94613.84
2023-02-05T11:11:53.092Z,94622.22
2023-02-05T11:14:37.257Z,94615.13
2023-02-05T11:17:26.783Z,94621.41
2023-02-05T11:19:56.146Z,94625.94
2023-02-05T11:22:37.516Z,94615.91
2023-02-05T11:25:18.012Z,94617.53
2023-02-05T11:27:54.621Z,94621.44
2023-02-05T11:30:56.156Z,94612.22
2023-02-05T11:33:22.143Z,94618.47
2023-02-05T11:36:03.190Z,94611.63
2023-02-05T11:38:53.754Z,94620.03
2023-02-05T11:41:51.756Z,94607.94
2023-02-05T11:44:26.001Z,94607.22
2023-02-05T11:46:57.057Z,94610.69
2023-02-05T11:49:34.836Z,94605.75
2023-02-05T11:52:11.777Z,94608.63
2023-02-05T11:54:39.538Z,94616.00
2023-02-05T11:57:18.695Z,94612.78
2023-02-05T12:00:22.044Z,94604.31
2023-02-05T12:02:54.198Z,94611.03
2023-02-05T12:05:32.449Z,94605.31
2023-02-05T12:08:09.119Z,94609.97
2023-02-05T12:10:49.719Z,94612.13
2023-02-05T12:13:48.606Z,94599.75
2023-02-05T12:16:21.842Z,94599.03
2023-02-05T12:18:48.609Z,94599.25
2023-02-05T12:21:49.460Z,94596.03
2023-02-05T12:24:28.601Z,94603.88
2023-02-05T12:27:22.472Z,94605.28
2023-02-05T12:30:04.810Z,94607.59
2023-02-05T12:33:02.134Z,94602.22
2023-02-05T12:35:59.518Z,94610.13
2023-02-05T12:38:44.266Z,94615.19
2023-02-05T12:41:13.461Z,94608.78
2023-02-05T12:43:45.193Z,94606.91
2023-02-05T12:46:38.114Z,94614.25
2023-02-05T12:49:26.304Z,94605.47
2023-02-05T12:51:53.033Z,94613.38
2023-02-05T12:54:39.490Z,94613.34
2023-02-05T12:57:12.150Z,94604.06
2023-02-05T12:59:46.896Z,94614.09
2023-02-05T13:02:16.463Z,94612.50
2023-02-05T13:04:51.820Z,94605.38
2023-02-05T13:07:38.289Z,94604.34
2023-02-05T13:10:19.699Z,94609.22
2023-02-05T13:12:52.021Z,94610.81
2023-02-05T13:15:28.214Z,94611.78
2023-02-05T13:18:01.894Z,94617.66
2023-02-05T13:20:52.583Z,94618.34
2023-02-05T13:23:37.805Z,94618.00
2023-02-05T13:26:16.672Z,94619.59
2023-02-05T13:28:47.926Z,94618.09
2023-02-05T13:31:30.682Z,94622.25
2023-02-05T13:34:03.394Z,94620.16
2023-02-05T13:36:56.559Z,94622.72
2023-02-05T13:39:34.222Z,94632.72
2023-02-05T13:42:32.498Z,94643.78
2023-02-05T13:45:37.459Z,94634.34
2023-02-05T13:48:49.418Z,94635.66
2023-02-05T13:51:21.989Z,94632.78
2023-02-05T13:54:09.879Z,94639.00
2023-02-05T13:56:48.689Z,94640.66
2023-02-05T13:59:37.212Z,94638.25
2023-02-05T14:02:24.443Z,94640.84
2023-02-05T14:04:54.864Z,94638.72
2023-02-05T14:07:31.278Z,94637.22
2023-02-05T14:10:01.055Z,94648.09
2023-02-05T14:12:29.190Z,94649.50
2023-02-05T14:15:17.475Z,94636.41
2023-02-05T14:17:44.105Z,94653.16
2023-02-05T14:20:25.965Z,94660.16
2023-02-05T14:22:54.530Z,94645.34
2023-02-05T14:25:36.878Z,94660.25
2023-02-05T14:28:15.793Z,94652.19
2023-02-05T14:30:50.490Z,94651.75
2023-02-05T14:33:47.289Z,94658.22
2023-02-05T14:36:17.252Z,94658.88
2023-02-05T14:39:05.027Z,94667.78
2023-02-05T14:41:47.025Z,94654.41
2023-02-05T14:44:13.567Z,94664.53
2023-02-05T14:46:58.415Z,94662.09
2023-02-05T14:49:47.163Z,94665.47
2023-02-05T14:52:21.735Z,94664.66
2023-02-05T14:54:57.388Z,94658.22
2023-02-05T14:57:44.516Z,94660.72
2023-02-05T15:00:28.096Z,94662.56
2023-02-05T15:03:13.070Z,94671.00
2023-02-05T15:05:48.877Z,94676.78
2023-02-05T15:08:34.135Z,94671.19
2023-02-05T15:11:06.803Z,94676.56
2023-02-05T15:13:34.280Z,94677.16
2023-02-05T15:16:13.218Z,94672.44
2023-02-05T15:18:39.931Z,94682.34
2023-02-05T15:21:10.120Z,94684.72
2023-02-05T15:23:46.477Z,94688.31
2023-02-05T15:26:27.759Z,94694.78
2023-02-05T15:29:03.863Z,94691.28
2023-02-05T15:31:47.118Z,94690.16
2023-02-05T15:34:37.742Z,94687.75
2023-02-05T15:37:10.098Z,94696.00
2023-02-05T15:39:42.532Z,94694.56
2023-02-05T15:42:15.957Z,94706.03
2023-02-05T15:44:42.627Z,94693.94
2023-02-05T15:47:17.337Z,94698.88
2023-02-05T15:49:49.033Z,94702.16
2023-02-05T15:52:20.453Z,94700.38
2023-02-05T15:54:47.240Z,94702.31
2023-02-05T15:57:26.711Z,94701.75
2023-02-05T15:59:55.047Z,94709.72
2023-02-05T16:02:25.066Z,94711.75
2023-02-05T16:05:00.436Z,94705.78
2023-02-05T16:07:37.093Z,94710.22
2023-02-05T16:10:20.621Z,94718.31
2023-02-05T16:13:15.763Z,94716.97
2023-02-05T16:16:05.896Z,94706.31
2023-02-05T16:18:47.320Z,94716.88
2023-02-05T16:21:29.477Z,94723.69
2023-02-05T16:24:00.053Z,94715.09
2023-02-05T16:26:29.135Z,94721.50
2023-02-05T16:29:03.187Z,94721.97
2023-02-05T16:31:32.775Z,94718.81
2023-02-05T16:34:07.619Z,94724.91
2023-02-05T16:36:39.526Z,94720.97
2023-02-05T16:39:20.238Z,94704.16
2023-02-05T16:42:01.721Z,94703.66
2023-02-05T16:44:32.978Z,94709.38
2023-02-05T16:47:26.208Z,94708.72
2023-02-05T16:49:53.280Z,94710.09
2023-02-05T16:52:36.535Z,94706.47
2023-02-05T16:55:27.597Z,94702.66
2023-02-05T16:57:56.380Z,94712.44
2023-02-05T17:00:25.897Z,94709.88
2023-02-05T17:02:55.461Z,94717.94
2023-02-05T17:05:29.130Z,94717.38
2023-02-05T17:07:58.258Z,94716.97
2023-02-05T17:10:25.546Z,94720.78
2023-02-05T17:13:05.472Z,94719.88
2023-02-05T17:15:35.933Z,94722.28
2023-02-05T17:18:20.192Z,94731.31
2023-02-05T17:20:47.026Z,94723.56
2023-02-05T17:23:15.975Z,94725.47
2023-02-05T17:25:55.455Z,94725.56
2023-02-05T17:28:25.700Z,94720.97
2023-02-05T17:30:54.622Z,94720.53
2023-02-05T17:33:23.836Z,94719.47
2023-02-05T17:35:50.636Z,94720.63
2023-02-05T17:38:17.952Z,94727.00
2023-02-05T17:40:44.954Z,94717.91
2023-02-05T17:43:11.572Z,94721.78
2023-02-05T17:45:40.611Z,94717.59
2023-02-05T17:48:08.398Z,94719.38
2023-02-05T17:50:36.115Z,94721.47
2023-02-05T17:53:03.809Z,94715.00
2023-02-05T17:55:30.575Z,94722.56
2023-02-05T17:57:57.224Z,94724.13
2023-02-05T18:00:26.600Z,94725.53
2023-02-05T18:02:54.184Z,94735.19
2023-02-05T18:05:21.070Z,94725.19
2023-02-05T18:07:51.359Z,94730.78
2023-02-05T18:10:23.345Z,94726.31
2023-02-05T18:12:50.427Z,94737.78
2023-02-05T18:15:17.310Z,94733.59
2023-02-05T18:17:43.998Z,94729.00
2023-02-05T18:20:12.308Z,94734.94
2023-02-05T18:22:39.015Z,94727.13
2023-02-05T18:25:06.591Z,94727.47
2023-02-05T18:27:33.623Z,94725.47
2023-02-05T18:30:00.251Z,94735.13
2023-02-05T18:32:26.902Z,94726.72
2023-02-05T18:34:53.763Z,94727.69
2023-02-05T18:37:20.452Z,94720.16
2023-02-05T18:39:48.129Z,94723.69
2023-02-05T18:42:15.462Z,94732.59
2023-02-05T18:44:42.250Z,94723.91
2023-02-05T18:47:10.174Z,94725.94
2023-02-05T18:49:38.113Z,94729.31
2023-02-05T18:52:06.292Z,94735.69
2023-02-05T18:54:33.287Z,94730.69
2023-02-05T18:56:59.952Z,94733.75
2023-02-05T18:59:26.626Z,94725.97
2023-02-05T19:01:53.842Z,94729.00
2023-02-05T19:04:21.166Z,94728.59
2023-02-05T19:06:54.970Z,94723.41
2023-02-05T19:09:25.084Z,94722.03
2023-02-05T19:11:53.154Z,94725.66
2023-02-05T19:14:22.138Z,94721.47
2023-02-05T19:16:49.736Z,94724.84
2023-02-05T19:19:20.166Z,94722.56
2023-02-05T19:21:48.874Z,94724.72
2023-02-05T19:24:17.351Z,94727.13
2023-02-05T19:26:44.794Z,94719.13
2023-02-05T19:29:18.763Z,94724.56
2023-02-05T19:31:46.255Z,94723.56
2023-02-05T19:34:13.109Z,94723.13
2023-02-05T19:36:41.127Z,94727.91
2023-02-05T19:39:11.193Z,94725.06
2023-02-05T19:41:38.409Z,94731.88
2023-02-05T19:44:07.775Z,94733.25
2023-02-05T19:46:37.834Z,94731.03
2023-02-05T19:49:11.761Z,94725.41
2023-02-05T19:51:43.516Z,94723.41
2023-02-05T19:54:10.191Z,94717.16
2023-02-05T19:56:38.088Z,94735.50
2023-02-05T19:59:06.561Z,94727.78
2023-02-05T20:01:36.397Z,94731.00
2023-02-05T20:04:12.760Z,94733.75
2023-02-05T20:06:40.535Z,94734.38
2023-02-05T20:09:10.808Z,94734.50
2023-02-05T20:11:39.395Z,94747.69
2023-02-05T20:14:07.464Z,94749.97
2023-02-05T20:16:35.245Z,94746.34
2023-02-05T20:19:02.016Z,94740.13
2023-02-05T20:21:30.429Z,94743.88
2023-02-05T20:23:57.170Z,94754.81
2023-02-05T20:26:24.688Z,94753.72
2023-02-05T20:29:14.941Z,94757.09
2023-02-05T20:31:44.984Z,94750.31
2023-02-05T20:34:25.686Z,94758.13
2023-02-05T20:36:57.967Z,94756.81
2023-02-05T20:39:28.719Z,94757.31
2023-02-05T20:41:58.000Z,94748.84
2023-02-05T20:44:26.737Z,94756.06
2023-02-05T20:46:53.513Z,94757.09
2023-02-05T20:49:20.378Z,94760.84
2023-02-05T20:51:47.611Z,94763.53
2023-02-05T20:54:14.422Z,94754.59
2023-02-05T20:56:41.263Z,94758.41
2023-02-05T20:59:09.372Z,94756.41
2023-02-05T21:01:37.209Z,94762.56
2023-02-05T21:04:06.110Z,94760.91
2023-02-05T21:06:36.154Z,94757.16
2023-02-05T21:09:03.844Z,94759.41
2023-02-05T21:11:30.739Z,94765.44
2023-02-05T21:13:58.820Z,94771.47
2023-02-05T21:16:27.560Z,94765.09
2023-02-05T21:18:54.794Z,94765.19
2023-02-05T21:21:26.955Z,94771.47
2023-02-05T21:23:59.137Z,94778.25
2023-02-05T21:26:35.293Z,94772.06
2023-02-05T21:29:05.344Z,94779.06
2023-02-05T21:31:35.973Z,94776.44
2023-02-05T21:34:04.379Z,94777.41
2023-02-05T21:36:31.976Z,94777.97
2023-02-05T21:38:59.042Z,94781.03
2023-02-05T21:41:25.697Z,94777.09
2023-02-05T21:43:55.000Z,94776.88
2023-02-05T21:46:22.990Z,94777.31
2023-02-05T21:48:51.912Z,94781.84
2023-02-05T21:51:20.652Z,94785.38
2023-02-05T21:53:47.293Z,94784.78
2023-02-05T21:56:16.613Z,94785.47
2023-02-05T21:58:43.433Z,94785.38
2023-02-05T22:01:12.891Z,94790.56
2023-02-05T22:03:41.264Z,94794.13
2023-02-05T22:06:08.621Z,94800.13
2023-02-05T22:08:40.104Z,94798.78
2023-02-05T22:11:09.625Z,94797.59
2023-02-05T22:13:38.677Z,94803.00
2023-02-05T22:16:11.465Z,94795.25
2023-02-05T22:18:38.469Z,94803.34
2023-02-05T22:21:13.669Z,94809.84
2023-02-05T22:23:41.776Z,94809.28
2023-02-05T22:26:09.342Z,94806.69
2023-02-05T22:28:36.777Z,94810.31
2023-02-05T22:31:04.498Z,94808.41
2023-02-05T22:33:32.228Z,94816.84
2023-02-05T22:35:59.672Z,94815.69
2023-02-05T22:38:27.346Z,94810.22
2023-02-05T22:40:53.940Z,94813.00
2023-02-05T22:43:21.540Z,94814.19
2023-02-05T22:45:48.271Z,94813.00
2023-02-05T22:48:15.024Z,94809.91
2023-02-05T22:50:43.161Z,94807.44
2023-02-05T22:53:11.001Z,94798.44
2023-02-05T22:55:39.726Z,94805.09
2023-02-05T22:58:07.211Z,94800.91
2023-02-05T23:00:34.232Z,94797.19
2023-02-05T23:03:01.310Z,94788.72
2023-02-05T23:05:33.285Z,94796.28
2023-02-05T23:08:00.551Z,94798.97
2023-02-05T23:10:27.681Z,94799.44
2023-02-05T23:12:54.354Z,94793.63
2023-02-05T23:15:21.060Z,94792.94
2023-02-05T23:17:47.640Z,94803.53
2023-02-05T23:20:16.689Z,94794.53
2023-02-05T23:22:43.419Z,94794.72
2023-02-05T23:25:10.697Z,94791.53
2023-02-05T23:27:37.305Z,94792.22
2023-02-05T23:30:05.376Z,94793.44
2023-02-05T23:32:32.388Z,94797.41
2023-02-05T23:34:58.988Z,94787.84
2023-02-05T23:37:25.660Z,94799.75
2023-02-05T23:39:52.271Z,94787.50
2023-02-05T23:42:18.922Z,94793.25
2023-02-05T23:44:45.606Z,94792.66
2023-02-05T23:47:12.154Z,94793.31
2023-02-05T23:49:38.804Z,94800.00
2023-02-05T23:52:05.474Z,94791.63
2023-02-05T23:54:32.241Z,94801.44
2023-02-05T23:56:58.788Z,94797.16
2023-02-05T23:59:25.424Z,94804.91
